sensor_id;sensor_type;location;lat;lon;timestamp;P1;durP1;ratioP1;P2;durP2;ratioP2
63959;SDS011;50136;51.374;0.096;2023-04-26T00:05:21;7.80;;;3.45;;
63959;SDS011;50136;51.374;0.096;2023-04-26T00:15:26;13.40;;;3.33;;
63959;SDS011;50136;51.374;0.096;2023-04-26T00:25:28;8.20;;;3.17;;
63959;SDS011;50136;51.374;0.096;2023-04-26T00:35:31;11.23;;;3.70;;
63959;SDS011;50136;51.374;0.096;2023-04-26T00:45:33;7.35;;;3.30;;
63959;SDS011;50136;51.374;0.096;2023-04-26T00:55:37;11.60;;;4.18;;
63959;SDS011;50136;51.374;0.096;2023-04-26T01:05:39;11.00;;;3.88;;
63959;SDS011;50136;51.374;0.096;2023-04-26T01:15:43;10.18;;;3.70;;
63959;SDS011;50136;51.374;0.096;2023-04-26T01:25:47;15.85;;;3.78;;
63959;SDS011;50136;51.374;0.096;2023-04-26T01:35:49;10.55;;;4.28;;
63959;SDS011;50136;51.374;0.096;2023-04-26T01:45:52;12.30;;;3.90;;
63959;SDS011;50136;51.374;0.096;2023-04-26T01:55:54;15.48;;;3.88;;
63959;SDS011;50136;51.374;0.096;2023-04-26T02:05:58;13.18;;;5.05;;
63959;SDS011;50136;51.374;0.096;2023-04-26T02:16:00;7.68;;;2.80;;
63959;SDS011;50136;51.374;0.096;2023-04-26T02:26:03;6.50;;;3.03;;
63959;SDS011;50136;51.374;0.096;2023-04-26T02:36:06;11.65;;;3.42;;
63959;SDS011;50136;51.374;0.096;2023-04-26T02:46:09;10.00;;;3.42;;
63959;SDS011;50136;51.374;0.096;2023-04-26T02:56:11;8.15;;;3.65;;
63959;SDS011;50136;51.374;0.096;2023-04-26T03:06:14;8.93;;;3.95;;
63959;SDS011;50136;51.374;0.096;2023-04-26T03:16:17;8.95;;;3.15;;
63959;SDS011;50136;51.374;0.096;2023-04-26T03:26:21;9.70;;;3.20;;
63959;SDS011;50136;51.374;0.096;2023-04-26T03:36:23;7.82;;;3.28;;
63959;SDS011;50136;51.374;0.096;2023-04-26T03:46:26;9.75;;;5.05;;
63959;SDS011;50136;51.374;0.096;2023-04-26T03:56:28;7.82;;;2.67;;
63959;SDS011;50136;51.374;0.096;2023-04-26T04:06:32;5.35;;;2.85;;
63959;SDS011;50136;51.374;0.096;2023-04-26T04:16:34;9.88;;;2.97;;
63959;SDS011;50136;51.374;0.096;2023-04-26T04:26:37;4.68;;;2.30;;
63959;SDS011;50136;51.374;0.096;2023-04-26T04:36:39;8.13;;;2.95;;
63959;SDS011;50136;51.374;0.096;2023-04-26T04:46:42;6.55;;;2.28;;
63959;SDS011;50136;51.374;0.096;2023-04-26T04:56:45;10.15;;;2.78;;
63959;SDS011;50136;51.374;0.096;2023-04-26T05:06:48;9.20;;;3.50;;
63959;SDS011;50136;51.374;0.096;2023-04-26T05:16:50;7.78;;;2.75;;
63959;SDS011;50136;51.374;0.096;2023-04-26T05:26:53;8.82;;;3.65;;
63959;SDS011;50136;51.374;0.096;2023-04-26T05:36:55;6.25;;;2.63;;
63959;SDS011;50136;51.374;0.096;2023-04-26T05:46:59;6.63;;;2.63;;
63959;SDS011;50136;51.374;0.096;2023-04-26T05:57:01;13.60;;;2.42;;
63959;SDS011;50136;51.374;0.096;2023-04-26T06:07:04;9.32;;;2.55;;
63959;SDS011;50136;51.374;0.096;2023-04-26T06:17:06;10.60;;;3.08;;
63959;SDS011;50136;51.374;0.096;2023-04-26T06:27:09;10.85;;;3.35;;
63959;SDS011;50136;51.374;0.096;2023-04-26T06:37:11;8.52;;;2.75;;
63959;SDS011;50136;51.374;0.096;2023-04-26T06:47:15;9.77;;;2.70;;
63959;SDS011;50136;51.374;0.096;2023-04-26T06:57:17;7.90;;;2.50;;
63959;SDS011;50136;51.374;0.096;2023-04-26T07:07:20;14.05;;;2.75;;
63959;SDS011;50136;51.374;0.096;2023-04-26T07:17:22;9.38;;;3.00;;
63959;SDS011;50136;51.374;0.096;2023-04-26T07:27:25;9.73;;;3.63;;
63959;SDS011;50136;51.374;0.096;2023-04-26T07:37:27;11.18;;;2.90;;
63959;SDS011;50136;51.374;0.096;2023-04-26T07:47:31;12.00;;;3.17;;
63959;SDS011;50136;51.374;0.096;2023-04-26T07:57:33;10.70;;;4.85;;
63959;SDS011;50136;51.374;0.096;2023-04-26T08:07:36;11.35;;;2.78;;
63959;SDS011;50136;51.374;0.096;2023-04-26T08:17:38;10.07;;;3.33;;
63959;SDS011;50136;51.374;0.096;2023-04-26T08:27:42;10.85;;;3.15;;
63959;SDS011;50136;51.374;0.096;2023-04-26T08:37:44;11.50;;;3.45;;
63959;SDS011;50136;51.374;0.096;2023-04-26T08:47:48;16.05;;;3.53;;
63959;SDS011;50136;51.374;0.096;2023-04-26T08:57:51;8.15;;;3.13;;
63959;SDS011;50136;51.374;0.096;2023-04-26T09:07:55;9.65;;;3.10;;
63959;SDS011;50136;51.374;0.096;2023-04-26T09:18:14;8.70;;;3.75;;
63959;SDS011;50136;51.374;0.096;2023-04-26T09:28:22;11.63;;;3.80;;
63959;SDS011;50136;51.374;0.096;2023-04-26T09:38:24;13.35;;;5.72;;
63959;SDS011;50136;51.374;0.096;2023-04-26T09:48:28;5.38;;;2.33;;
63959;SDS011;50136;51.374;0.096;2023-04-26T10:09:41;10.93;;;2.80;;
63959;SDS011;50136;51.374;0.096;2023-04-26T10:19:44;9.40;;;3.33;;
63959;SDS011;50136;51.374;0.096;2023-04-26T10:30:07;8.95;;;2.83;;
63959;SDS011;50136;51.374;0.096;2023-04-26T10:40:23;9.57;;;2.88;;
63959;SDS011;50136;51.374;0.096;2023-04-26T10:50:28;9.32;;;2.90;;
63959;SDS011;50136;51.374;0.096;2023-04-26T11:00:30;4.95;;;2.33;;
63959;SDS011;50136;51.374;0.096;2023-04-26T11:10:36;8.25;;;2.75;;
63959;SDS011;50136;51.374;0.096;2023-04-26T11:20:39;12.57;;;2.50;;
63959;SDS011;50136;51.374;0.096;2023-04-26T11:30:42;6.68;;;2.63;;
63959;SDS011;50136;51.374;0.096;2023-04-26T11:40:44;8.07;;;2.90;;
63959;SDS011;50136;51.374;0.096;2023-04-26T11:51:05;7.05;;;2.60;;
63959;SDS011;50136;51.374;0.096;2023-04-26T12:01:09;6.20;;;3.53;;
63959;SDS011;50136;51.374;0.096;2023-04-26T12:11:12;8.68;;;3.35;;
63959;SDS011;50136;51.374;0.096;2023-04-26T12:21:17;7.60;;;2.78;;
63959;SDS011;50136;51.374;0.096;2023-04-26T12:31:20;7.18;;;2.97;;
63959;SDS011;50136;51.374;0.096;2023-04-26T12:41:22;8.38;;;2.85;;
63959;SDS011;50136;51.374;0.096;2023-04-26T12:51:26;7.75;;;2.50;;
63959;SDS011;50136;51.374;0.096;2023-04-26T13:01:28;4.68;;;2.30;;
63959;SDS011;50136;51.374;0.096;2023-04-26T13:11:32;7.63;;;2.65;;
63959;SDS011;50136;51.374;0.096;2023-04-26T13:21:34;10.23;;;2.97;;
63959;SDS011;50136;51.374;0.096;2023-04-26T13:31:39;7.65;;;2.75;;
63959;SDS011;50136;51.374;0.096;2023-04-26T13:41:41;14.80;;;4.07;;
63959;SDS011;50136;51.374;0.096;2023-04-26T13:51:45;13.82;;;5.35;;
63959;SDS011;50136;51.374;0.096;2023-04-26T14:01:46;8.70;;;2.72;;
63959;SDS011;50136;51.374;0.096;2023-04-26T14:11:50;7.82;;;2.65;;
63959;SDS011;50136;51.374;0.096;2023-04-26T14:22:07;4.47;;;3.00;;
63959;SDS011;50136;51.374;0.096;2023-04-26T14:32:11;6.22;;;2.95;;
63959;SDS011;50136;51.374;0.096;2023-04-26T14:42:13;9.02;;;2.95;;
63959;SDS011;50136;51.374;0.096;2023-04-26T14:52:16;8.18;;;3.15;;
63959;SDS011;50136;51.374;0.096;2023-04-26T15:02:18;11.13;;;3.38;;
63959;SDS011;50136;51.374;0.096;2023-04-26T15:12:22;10.30;;;4.20;;
63959;SDS011;50136;51.374;0.096;2023-04-26T15:22:24;15.40;;;3.72;;
63959;SDS011;50136;51.374;0.096;2023-04-26T15:32:27;8.93;;;3.22;;
63959;SDS011;50136;51.374;0.096;2023-04-26T15:42:29;10.75;;;4.00;;
63959;SDS011;50136;51.374;0.096;2023-04-26T15:52:33;16.80;;;6.80;;
63959;SDS011;50136;51.374;0.096;2023-04-26T16:02:39;9.35;;;3.30;;
63959;SDS011;50136;51.374;0.096;2023-04-26T16:12:42;6.63;;;3.30;;
63959;SDS011;50136;51.374;0.096;2023-04-26T16:22:44;10.77;;;3.70;;
63959;SDS011;50136;51.374;0.096;2023-04-26T16:32:48;7.10;;;3.25;;
63959;SDS011;50136;51.374;0.096;2023-04-26T16:42:50;8.25;;;3.35;;
63959;SDS011;50136;51.374;0.096;2023-04-26T16:52:53;12.40;;;4.72;;
63959;SDS011;50136;51.374;0.096;2023-04-26T17:02:55;14.15;;;3.95;;
63959;SDS011;50136;51.374;0.096;2023-04-26T17:12:59;12.98;;;3.60;;
63959;SDS011;50136;51.374;0.096;2023-04-26T17:23:01;7.30;;;4.25;;
63959;SDS011;50136;51.374;0.096;2023-04-26T17:33:06;10.93;;;4.07;;
63959;SDS011;50136;51.374;0.096;2023-04-26T17:43:08;13.90;;;6.78;;
63959;SDS011;50136;51.374;0.096;2023-04-26T17:53:11;16.92;;;5.55;;
63959;SDS011;50136;51.374;0.096;2023-04-26T18:03:13;21.00;;;5.80;;
63959;SDS011;50136;51.374;0.096;2023-04-26T18:13:17;14.13;;;5.93;;
63959;SDS011;50136;51.374;0.096;2023-04-26T18:23:19;8.73;;;5.10;;
63959;SDS011;50136;51.374;0.096;2023-04-26T18:44:30;13.38;;;7.50;;
63959;SDS011;50136;51.374;0.096;2023-04-26T18:54:34;13.15;;;6.68;;
63959;SDS011;50136;51.374;0.096;2023-04-26T19:04:36;16.95;;;6.45;;
63959;SDS011;50136;51.374;0.096;2023-04-26T19:14:40;12.57;;;6.45;;
63959;SDS011;50136;51.374;0.096;2023-04-26T19:24:42;16.23;;;5.50;;
63959;SDS011;50136;51.374;0.096;2023-04-26T19:34:45;12.52;;;6.90;;
63959;SDS011;50136;51.374;0.096;2023-04-26T19:44:47;11.77;;;5.90;;
63959;SDS011;50136;51.374;0.096;2023-04-26T19:54:52;17.67;;;7.55;;
63959;SDS011;50136;51.374;0.096;2023-04-26T20:04:54;17.55;;;9.20;;
63959;SDS011;50136;51.374;0.096;2023-04-26T20:14:58;15.07;;;6.30;;
63959;SDS011;50136;51.374;0.096;2023-04-26T20:25:00;19.63;;;8.38;;
63959;SDS011;50136;51.374;0.096;2023-04-26T20:35:07;13.25;;;6.07;;
63959;SDS011;50136;51.374;0.096;2023-04-26T20:45:10;14.82;;;5.95;;
63959;SDS011;50136;51.374;0.096;2023-04-26T20:55:13;11.45;;;6.00;;
63959;SDS011;50136;51.374;0.096;2023-04-26T21:15:33;15.10;;;8.32;;
63959;SDS011;50136;51.374;0.096;2023-04-26T21:25:36;13.85;;;7.15;;
63959;SDS011;50136;51.374;0.096;2023-04-26T21:35:39;14.77;;;7.15;;
63959;SDS011;50136;51.374;0.096;2023-04-26T21:45:41;32.03;;;9.15;;
63959;SDS011;50136;51.374;0.096;2023-04-26T21:55:48;16.35;;;6.82;;
63959;SDS011;50136;51.374;0.096;2023-04-26T22:05:50;12.95;;;7.20;;
63959;SDS011;50136;51.374;0.096;2023-04-26T22:15:54;13.10;;;5.68;;
63959;SDS011;50136;51.374;0.096;2023-04-26T22:25:56;16.00;;;6.18;;
63959;SDS011;50136;51.374;0.096;2023-04-26T22:35:59;9.27;;;5.70;;
63959;SDS011;50136;51.374;0.096;2023-04-26T22:46:01;12.32;;;6.25;;
63959;SDS011;50136;51.374;0.096;2023-04-26T22:56:05;8.05;;;5.00;;
63959;SDS011;50136;51.374;0.096;2023-04-26T23:06:08;13.15;;;5.70;;
63959;SDS011;50136;51.374;0.096;2023-04-26T23:16:11;10.65;;;5.80;;
63959;SDS011;50136;51.374;0.096;2023-04-26T23:26:13;17.20;;;6.05;;
63959;SDS011;50136;51.374;0.096;2023-04-26T23:36:16;10.48;;;5.90;;
63959;SDS011;50136;51.374;0.096;2023-04-26T23:46:18;10.75;;;5.82;;
63959;SDS011;50136;51.374;0.096;2023-04-26T23:56:22;10.82;;;5.68;;
